createdAt,value
2023-04-18T00:00:51.313Z,5.27
2023-04-18T00:03:18.341Z,4.87
2023-04-18T00:05:48.438Z,5.50
2023-04-18T00:08:15.702Z,5.47
2023-04-18T00:10:42.480Z,5.10
2023-04-18T00:13:10.331Z,5.27
2023-04-18T00:15:37.233Z,5.37
2023-04-18T00:18:04.222Z,4.90
2023-04-18T00:20:31.116Z,5.13
2023-04-18T00:22:58.091Z,4.40
2023-04-18T00:25:24.987Z,4.60
2023-04-18T00:27:51.866Z,4.10
2023-04-18T00:30:18.652Z,4.47
2023-04-18T00:32:45.541Z,3.80
2023-04-18T00:35:12.343Z,4.00
2023-04-18T00:37:39.176Z,4.13
2023-04-18T00:40:06.548Z,4.40
2023-04-18T00:42:33.582Z,3.60
2023-04-18T00:45:00.444Z,4.27
2023-04-18T00:47:27.405Z,4.57
2023-04-18T00:49:55.072Z,4.37
2023-04-18T00:52:22.069Z,4.83
2023-04-18T00:54:49.043Z,4.17
2023-04-18T00:57:16.505Z,4.27
2023-04-18T00:59:43.419Z,4.20
2023-04-18T01:02:10.689Z,4.50
2023-04-18T01:04:37.577Z,4.37
2023-04-18T01:07:04.925Z,4.33
2023-04-18T01:09:31.860Z,4.07
2023-04-18T01:11:58.639Z,4.00
2023-04-18T01:14:25.525Z,4.27
2023-04-18T01:16:53.266Z,4.27
2023-04-18T01:19:20.067Z,4.50
2023-04-18T01:21:47.432Z,4.73
2023-04-18T01:24:15.441Z,4.23
2023-04-18T01:26:44.278Z,4.37
2023-04-18T01:29:11.374Z,4.80
2023-04-18T01:31:38.580Z,4.30
2023-04-18T01:34:07.620Z,4.27
2023-04-18T01:36:35.167Z,4.27
2023-04-18T01:39:02.526Z,3.70
2023-04-18T01:41:32.874Z,3.93
2023-04-18T01:44:00.452Z,4.37
2023-04-18T01:46:27.735Z,4.30
2023-04-18T01:48:54.897Z,3.90
2023-04-18T01:51:21.839Z,4.40
2023-04-18T01:53:48.874Z,4.00
2023-04-18T01:56:15.829Z,3.87
2023-04-18T01:58:42.744Z,4.43
2023-04-18T02:01:09.553Z,4.00
2023-04-18T02:03:38.188Z,4.40
2023-04-18T02:06:05.546Z,4.50
2023-04-18T02:08:35.793Z,3.47
2023-04-18T02:11:04.859Z,4.07
2023-04-18T02:13:32.117Z,4.17
2023-04-18T02:15:59.071Z,3.63
2023-04-18T02:18:26.755Z,3.50
2023-04-18T02:20:53.707Z,3.23
2023-04-18T02:23:22.107Z,3.53
2023-04-18T02:25:49.404Z,3.30
2023-04-18T02:28:17.538Z,3.80
2023-04-18T02:30:44.404Z,3.53
2023-04-18T02:33:11.248Z,4.20
2023-04-18T02:35:38.063Z,3.63
2023-04-18T02:38:05.029Z,3.20
2023-04-18T02:40:31.823Z,3.30
2023-04-18T02:42:59.578Z,3.77
2023-04-18T02:45:26.551Z,4.10
2023-04-18T02:47:56.551Z,3.13
2023-04-18T02:50:24.705Z,2.80
2023-04-18T02:52:53.438Z,3.23
2023-04-18T02:55:22.354Z,3.57
2023-04-18T02:57:49.720Z,3.67
2023-04-18T03:00:19.911Z,3.30
2023-04-18T03:03:07.234Z,3.03
2023-04-18T03:05:54.623Z,3.90
2023-04-18T03:08:21.559Z,2.60
2023-04-18T03:10:49.051Z,3.10
2023-04-18T03:13:18.266Z,3.30
2023-04-18T03:15:46.095Z,3.43
2023-04-18T03:18:13.456Z,3.43
2023-04-18T03:20:41.401Z,3.30
2023-04-18T03:23:08.503Z,3.17
2023-04-18T03:25:36.312Z,4.03
2023-04-18T03:28:04.803Z,4.00
2023-04-18T03:30:33.048Z,3.30
2023-04-18T03:33:03.019Z,4.00
2023-04-18T03:35:30.663Z,4.27
2023-04-18T03:37:57.635Z,4.00
2023-04-18T03:40:28.099Z,4.40
2023-04-18T03:43:00.272Z,4.30
2023-04-18T03:45:27.231Z,5.00
2023-04-18T03:47:55.217Z,4.90
2023-04-18T03:50:24.586Z,4.63
2023-04-18T03:52:53.673Z,5.17
2023-04-18T03:55:20.830Z,4.80
2023-04-18T03:57:47.776Z,4.53
2023-04-18T04:00:21.695Z,5.47
2023-04-18T04:02:58.885Z,5.77
2023-04-18T04:05:26.113Z,6.10
2023-04-18T04:07:52.971Z,6.33
2023-04-18T04:10:19.996Z,6.13
2023-04-18T04:12:48.599Z,6.30
2023-04-18T04:15:16.091Z,6.20
2023-04-18T04:17:50.788Z,6.80
2023-04-18T04:20:24.162Z,7.83
2023-04-18T04:22:59.064Z,7.33
2023-04-18T04:25:28.821Z,8.17
2023-04-18T04:28:01.612Z,7.87
2023-04-18T04:30:31.966Z,7.90
2023-04-18T04:33:00.023Z,6.57
2023-04-18T04:35:27.028Z,8.43
2023-04-18T04:37:53.973Z,7.80
2023-04-18T04:40:30.165Z,8.50
2023-04-18T04:43:15.741Z,8.40
2023-04-18T04:45:44.776Z,9.00
2023-04-18T04:48:12.269Z,8.57
2023-04-18T04:50:40.615Z,8.90
2023-04-18T04:53:07.953Z,9.10
2023-04-18T04:55:35.072Z,9.57
2023-04-18T04:58:04.146Z,8.83
2023-04-18T05:00:58.670Z,9.83
2023-04-18T05:03:26.477Z,10.03
2023-04-18T05:05:53.507Z,10.13
2023-04-18T05:08:20.427Z,10.37
2023-04-18T05:10:47.896Z,10.17
2023-04-18T05:13:14.691Z,13.77
2023-04-18T05:15:41.597Z,16.47
2023-04-18T05:18:08.842Z,14.57
2023-04-18T05:20:35.692Z,10.17
2023-04-18T05:23:02.592Z,11.80
2023-04-18T05:25:30.082Z,11.47
2023-04-18T05:27:56.965Z,11.20
2023-04-18T05:30:23.832Z,10.87
2023-04-18T05:32:50.657Z,10.13
2023-04-18T05:35:17.650Z,10.60
2023-04-18T05:37:45.025Z,10.60
2023-04-18T05:40:12.314Z,10.03
2023-04-18T05:42:39.222Z,24.90
2023-04-18T05:45:06.329Z,22.60
2023-04-18T05:47:33.799Z,13.23
2023-04-18T05:50:00.801Z,10.53
2023-04-18T05:52:27.679Z,10.33
2023-04-18T05:54:54.521Z,11.53
2023-04-18T05:57:21.480Z,11.90
2023-04-18T05:59:48.279Z,11.20
2023-04-18T06:02:15.251Z,11.20
2023-04-18T06:04:42.906Z,11.23
2023-04-18T06:07:10.298Z,10.63
2023-04-18T06:09:37.189Z,11.40
2023-04-18T06:12:04.310Z,11.90
2023-04-18T06:14:31.258Z,11.77
2023-04-18T06:16:58.680Z,12.23
2023-04-18T06:19:25.656Z,12.73
2023-04-18T06:21:52.748Z,11.60
2023-04-18T06:24:19.739Z,12.77
2023-04-18T06:26:46.736Z,16.73
2023-04-18T06:29:13.566Z,14.77
2023-04-18T06:31:42.300Z,13.30
2023-04-18T06:34:09.235Z,12.80
2023-04-18T06:36:36.481Z,12.93
2023-04-18T06:39:03.637Z,14.27
2023-04-18T06:41:30.554Z,13.77
2023-04-18T06:44:02.636Z,13.63
2023-04-18T06:46:30.402Z,13.37
2023-04-18T06:48:57.371Z,14.10
2023-04-18T06:51:24.168Z,14.07
2023-04-18T06:53:53.091Z,13.03
2023-04-18T06:56:20.715Z,13.33
2023-04-18T06:58:48.069Z,13.80
2023-04-18T07:01:15.092Z,17.67
2023-04-18T07:03:42.087Z,16.57
2023-04-18T07:06:10.679Z,14.90
2023-04-18T07:08:37.593Z,14.70
2023-04-18T07:11:04.504Z,13.53
2023-04-18T07:13:31.343Z,13.17
2023-04-18T07:15:58.248Z,13.27
2023-04-18T07:18:36.552Z,14.10
2023-04-18T07:21:07.521Z,12.53
2023-04-18T07:23:35.410Z,12.87
2023-04-18T07:26:03.296Z,13.00
2023-04-18T07:28:31.697Z,13.10
2023-04-18T07:30:59.012Z,11.67
2023-04-18T07:33:25.840Z,12.63
2023-04-18T07:35:53.311Z,13.40
2023-04-18T07:38:20.296Z,12.97
2023-04-18T07:40:47.312Z,13.07
2023-04-18T07:43:14.137Z,12.60
2023-04-18T07:45:43.454Z,13.13
2023-04-18T07:48:11.470Z,11.13
2023-04-18T07:50:38.900Z,13.10
2023-04-18T07:53:06.339Z,11.13
2023-04-18T07:55:33.249Z,11.77
2023-04-18T07:58:00.380Z,11.43
2023-04-18T08:00:28.922Z,11.90
2023-04-18T08:02:55.877Z,11.10
2023-04-18T08:05:22.981Z,11.87
2023-04-18T08:07:49.757Z,11.00
2023-04-18T08:10:16.642Z,11.10
2023-04-18T08:12:43.672Z,11.43
2023-04-18T08:15:10.953Z,9.83
2023-04-18T08:17:39.165Z,10.70
2023-04-18T08:20:06.816Z,10.83
2023-04-18T08:22:33.675Z,10.90
2023-04-18T08:25:05.456Z,11.07
2023-04-18T08:27:32.769Z,12.80
2023-04-18T08:29:59.755Z,10.23
2023-04-18T08:32:26.632Z,11.10
2023-04-18T08:34:53.395Z,11.37
2023-04-18T08:37:20.303Z,11.93
2023-04-18T08:39:48.367Z,12.07
2023-04-18T08:42:16.509Z,11.27
2023-04-18T08:44:43.588Z,11.07
2023-04-18T08:47:10.904Z,10.70
2023-04-18T08:49:38.335Z,11.20
2023-04-18T08:52:11.769Z,10.47
2023-04-18T08:54:42.147Z,10.17
2023-04-18T08:57:09.769Z,9.60
2023-04-18T08:59:36.986Z,9.00
2023-04-18T09:02:04.604Z,26.40
2023-04-18T09:04:52.755Z,10.97
2023-04-18T09:07:21.056Z,10.30
2023-04-18T09:09:49.354Z,10.17
2023-04-18T09:12:23.350Z,11.10
2023-04-18T09:14:51.430Z,10.07
2023-04-18T09:17:33.603Z,15.50
2023-04-18T09:20:01.566Z,10.67
2023-04-18T09:22:46.188Z,10.57
2023-04-18T09:25:24.001Z,11.23
2023-04-18T09:27:50.904Z,10.90
2023-04-18T09:30:34.871Z,11.17
2023-04-18T09:33:04.802Z,10.37
2023-04-18T09:35:31.853Z,10.07
2023-04-18T09:37:58.892Z,10.03
2023-04-18T09:40:25.720Z,11.90
2023-04-18T09:42:55.864Z,10.40
2023-04-18T09:45:23.794Z,9.80
2023-04-18T09:47:51.255Z,10.37
2023-04-18T09:50:18.889Z,11.40
2023-04-18T09:52:46.302Z,11.93
2023-04-18T09:55:17.027Z,9.47
2023-04-18T09:57:44.946Z,10.60
2023-04-18T10:00:25.547Z,10.63
2023-04-18T10:02:59.588Z,8.97
2023-04-18T10:05:32.421Z,10.97
2023-04-18T10:07:59.740Z,11.33
2023-04-18T10:10:26.618Z,9.60
2023-04-18T10:12:57.344Z,11.07
2023-04-18T10:15:25.603Z,9.93
2023-04-18T10:18:04.518Z,9.90
2023-04-18T10:20:33.268Z,9.97
2023-04-18T10:23:00.354Z,9.03
2023-04-18T10:25:38.789Z,10.30
2023-04-18T10:28:06.927Z,8.93
2023-04-18T10:30:42.717Z,9.63
2023-04-18T10:33:40.949Z,8.73
2023-04-18T10:36:09.541Z,9.13
2023-04-18T10:38:45.243Z,9.87
2023-04-18T10:41:24.276Z,10.03
2023-04-18T10:44:16.270Z,9.97
2023-04-18T10:47:04.051Z,9.80
2023-04-18T10:49:34.345Z,10.37
2023-04-18T10:52:02.075Z,10.63
2023-04-18T10:54:30.888Z,12.30
2023-04-18T10:56:58.840Z,10.57
2023-04-18T10:59:27.053Z,10.30
2023-04-18T11:02:04.831Z,10.50
2023-04-18T11:04:31.808Z,9.40
2023-04-18T11:06:58.938Z,10.27
2023-04-18T11:09:25.802Z,9.83
2023-04-18T11:12:06.861Z,11.10
2023-04-18T11:14:43.405Z,9.23
2023-04-18T11:17:17.290Z,9.37
2023-04-18T11:19:44.132Z,9.93
2023-04-18T11:22:11.658Z,9.60
2023-04-18T11:24:38.960Z,9.60
2023-04-18T11:27:06.039Z,8.63
2023-04-18T11:29:32.808Z,8.50
2023-04-18T11:31:59.714Z,8.40
2023-04-18T11:34:33.017Z,8.57
2023-04-18T11:37:00.420Z,8.43
2023-04-18T11:39:27.364Z,8.77
2023-04-18T11:41:56.591Z,8.13
2023-04-18T11:44:23.947Z,6.70
2023-04-18T11:46:51.671Z,7.17
2023-04-18T11:49:24.958Z,7.63
2023-04-18T11:51:51.866Z,7.10
2023-04-18T11:54:38.557Z,6.93
2023-04-18T11:57:06.425Z,8.30
2023-04-18T11:59:33.402Z,7.47
2023-04-18T12:02:15.341Z,7.87
2023-04-18T12:04:57.712Z,7.27
2023-04-18T12:07:50.881Z,8.90
2023-04-18T12:10:20.771Z,6.00
2023-04-18T12:12:48.804Z,7.50
2023-04-18T12:15:16.676Z,7.03
2023-04-18T12:17:44.435Z,6.87
2023-04-18T12:20:13.523Z,7.00
2023-04-18T12:22:50.280Z,7.10
2023-04-18T12:25:26.252Z,6.67
2023-04-18T12:27:58.234Z,7.03
2023-04-18T12:30:26.971Z,7.53
2023-04-18T12:32:55.249Z,7.67
2023-04-18T12:35:22.946Z,7.80
2023-04-18T12:37:50.467Z,7.87
2023-04-18T12:40:19.283Z,7.20
2023-04-18T12:42:46.826Z,11.70
2023-04-18T12:45:14.192Z,9.87
2023-04-18T12:47:41.843Z,8.43
2023-04-18T12:50:11.309Z,7.93
2023-04-18T12:52:40.839Z,7.57
2023-04-18T12:55:08.148Z,7.53
2023-04-18T12:57:35.432Z,7.90
2023-04-18T13:00:02.563Z,8.50
2023-04-18T13:02:49.549Z,8.00
2023-04-18T13:05:17.549Z,7.30
2023-04-18T13:07:44.831Z,6.47
2023-04-18T13:10:12.612Z,6.50
2023-04-18T13:12:39.971Z,6.60
2023-04-18T13:15:07.385Z,6.40
2023-04-18T13:17:36.951Z,7.37
2023-04-18T13:20:06.587Z,6.40
2023-04-18T13:22:34.076Z,7.17
2023-04-18T13:25:00.919Z,7.00
2023-04-18T13:27:27.846Z,7.20
2023-04-18T13:29:55.305Z,6.50
2023-04-18T13:32:22.190Z,5.77
2023-04-18T13:34:49.399Z,6.57
2023-04-18T13:37:16.249Z,8.03
2023-04-18T13:39:43.226Z,6.80
2023-04-18T13:42:10.162Z,8.13
2023-04-18T13:44:38.030Z,7.53
2023-04-18T13:47:05.670Z,6.93
2023-04-18T13:49:32.967Z,6.70
2023-04-18T13:51:59.925Z,7.63
2023-04-18T13:54:27.778Z,7.63
2023-04-18T13:56:54.984Z,7.90
2023-04-18T13:59:21.781Z,7.77
2023-04-18T14:01:49.310Z,7.87
2023-04-18T14:04:16.694Z,8.87
2023-04-18T14:06:43.723Z,7.80
2023-04-18T14:09:10.519Z,7.90
2023-04-18T14:11:37.828Z,8.57
2023-04-18T14:14:04.823Z,8.13
2023-04-18T14:16:48.830Z,8.00
2023-04-18T14:19:16.387Z,8.07
2023-04-18T14:21:43.277Z,8.77
2023-04-18T14:24:10.236Z,8.40
2023-04-18T14:26:37.407Z,7.57
2023-04-18T14:29:05.279Z,8.00
2023-04-18T14:31:32.113Z,8.00
2023-04-18T14:33:59.022Z,9.27
2023-04-18T14:36:26.467Z,7.90
2023-04-18T14:38:54.351Z,9.30
2023-04-18T14:41:21.325Z,8.07
2023-04-18T14:43:48.375Z,7.57
2023-04-18T14:46:18.368Z,7.53
2023-04-18T14:48:46.708Z,6.40
2023-04-18T14:51:14.884Z,8.57
2023-04-18T14:53:41.743Z,8.30
2023-04-18T14:56:08.942Z,9.30
2023-04-18T14:58:36.407Z,9.87
2023-04-18T15:01:04.281Z,10.63
2023-04-18T15:03:31.435Z,10.33
2023-04-18T15:05:58.395Z,11.20
2023-04-18T15:08:25.499Z,11.00
2023-04-18T15:10:52.328Z,11.47
2023-04-18T15:13:19.500Z,11.73
2023-04-18T15:15:56.478Z,11.80
2023-04-18T15:18:23.548Z,11.23
2023-04-18T15:20:51.275Z,12.10
2023-04-18T15:23:18.179Z,11.83
2023-04-18T15:25:45.710Z,13.73
2023-04-18T15:28:13.532Z,12.17
2023-04-18T15:30:40.853Z,12.23
2023-04-18T15:33:08.287Z,14.70
2023-04-18T15:35:36.122Z,13.33
2023-04-18T15:38:03.226Z,15.37
2023-04-18T15:40:30.120Z,14.60
2023-04-18T15:42:57.948Z,14.83
2023-04-18T15:45:24.834Z,14.53
2023-04-18T15:47:51.829Z,15.33
2023-04-18T15:50:18.768Z,14.10
2023-04-18T15:52:45.686Z,13.80
2023-04-18T15:55:13.270Z,14.30
2023-04-18T15:57:41.821Z,13.83
2023-04-18T16:00:16.469Z,13.17
2023-04-18T16:02:44.568Z,14.00
2023-04-18T16:05:12.634Z,13.13
2023-04-18T16:07:40.385Z,12.13
2023-04-18T16:10:10.504Z,13.63
2023-04-18T16:12:38.069Z,12.77
2023-04-18T16:15:06.105Z,13.80
2023-04-18T16:17:33.102Z,13.47
2023-04-18T16:19:59.993Z,12.47
2023-04-18T16:22:27.276Z,13.07
2023-04-18T16:24:54.089Z,10.90
2023-04-18T16:27:20.968Z,11.50
2023-04-18T16:29:48.065Z,12.53
2023-04-18T16:32:14.964Z,11.83
2023-04-18T16:34:41.799Z,11.10
2023-04-18T16:37:08.975Z,11.23
2023-04-18T16:39:35.878Z,12.30
2023-04-18T16:42:03.998Z,11.27
2023-04-18T16:44:30.976Z,11.83
2023-04-18T16:46:57.932Z,12.03
2023-04-18T16:49:25.430Z,11.60
2023-04-18T16:51:52.399Z,11.10
2023-04-18T16:54:19.216Z,12.57
2023-04-18T16:56:46.159Z,12.50
2023-04-18T16:59:13.068Z,12.57
2023-04-18T17:01:40.118Z,11.50
2023-04-18T17:04:07.079Z,11.90
2023-04-18T17:06:34.228Z,11.47
2023-04-18T17:09:01.036Z,12.13
2023-04-18T17:11:28.101Z,12.00
2023-04-18T17:13:54.983Z,9.90
2023-04-18T17:16:21.964Z,10.57
2023-04-18T17:18:48.860Z,13.43
2023-04-18T17:21:16.296Z,13.27
2023-04-18T17:23:43.070Z,13.57
2023-04-18T17:26:10.143Z,15.23
2023-04-18T17:28:37.111Z,12.77
2023-04-18T17:31:04.257Z,14.00
2023-04-18T17:33:31.405Z,13.23
2023-04-18T17:35:59.171Z,12.50
2023-04-18T17:38:25.954Z,14.77
2023-04-18T17:41:00.131Z,14.77
2023-04-18T17:43:27.221Z,14.17
2023-04-18T17:45:54.115Z,14.60
2023-04-18T17:48:22.578Z,13.93
2023-04-18T17:50:49.390Z,12.87
2023-04-18T17:53:17.598Z,12.80
2023-04-18T17:55:45.750Z,11.57
2023-04-18T17:58:12.873Z,14.13
2023-04-18T18:00:39.631Z,14.00
2023-04-18T18:03:09.099Z,13.53
2023-04-18T18:05:36.031Z,13.70
2023-04-18T18:08:02.908Z,13.57
2023-04-18T18:10:30.414Z,14.10
2023-04-18T18:12:57.548Z,15.90
2023-04-18T18:15:24.645Z,15.13
2023-04-18T18:17:52.193Z,13.40
2023-04-18T18:20:19.639Z,11.30
2023-04-18T18:22:47.433Z,11.97
2023-04-18T18:25:14.478Z,13.07
2023-04-18T18:27:41.392Z,11.97
2023-04-18T18:30:08.437Z,11.30
2023-04-18T18:32:35.413Z,10.87
2023-04-18T18:35:02.793Z,11.77
2023-04-18T18:37:29.735Z,11.13
2023-04-18T18:39:57.047Z,12.23
2023-04-18T18:42:23.997Z,10.97
2023-04-18T18:44:50.759Z,12.43
2023-04-18T18:47:18.187Z,12.33
2023-04-18T18:49:45.007Z,13.67
2023-04-18T18:52:11.888Z,13.90
2023-04-18T18:54:38.718Z,13.60
2023-04-18T18:57:05.696Z,14.60
2023-04-18T18:59:32.461Z,16.20
2023-04-18T19:01:59.747Z,17.23
2023-04-18T19:04:26.695Z,15.17
2023-04-18T19:06:53.968Z,16.37
2023-04-18T19:09:20.848Z,19.50
2023-04-18T19:11:47.743Z,16.80
2023-04-18T19:14:14.562Z,17.73
2023-04-18T19:16:41.584Z,17.57
2023-04-18T19:19:08.656Z,16.43
2023-04-18T19:21:35.579Z,16.60
2023-04-18T19:24:02.401Z,16.10
2023-04-18T19:26:29.373Z,15.40
2023-04-18T19:28:56.177Z,15.83
2023-04-18T19:31:23.405Z,17.90
2023-04-18T19:33:50.447Z,20.63
2023-04-18T19:36:17.339Z,20.83
2023-04-18T19:38:44.737Z,18.70
2023-04-18T19:41:11.617Z,17.23
2023-04-18T19:43:40.422Z,18.83
2023-04-18T19:46:07.379Z,18.37
2023-04-18T19:48:34.174Z,17.17
2023-04-18T19:51:01.730Z,17.40
2023-04-18T19:53:28.886Z,16.20
2023-04-18T19:55:56.478Z,16.47
2023-04-18T19:58:45.366Z,18.23
2023-04-18T20:01:12.900Z,17.67
2023-04-18T20:03:40.186Z,17.10
2023-04-18T20:06:07.804Z,17.37
2023-04-18T20:08:35.967Z,17.33
2023-04-18T20:11:04.107Z,17.83
2023-04-18T20:13:30.856Z,17.57
2023-04-18T20:15:57.841Z,16.50
2023-04-18T20:18:24.648Z,18.58
2023-04-18T20:20:51.670Z,17.90
2023-04-18T20:23:18.546Z,18.47
2023-04-18T20:25:45.497Z,17.50
2023-04-18T20:28:12.334Z,19.37
2023-04-18T20:30:39.306Z,16.97
2023-04-18T20:33:06.201Z,17.30
2023-04-18T20:35:33.104Z,17.17
2023-04-18T20:38:00.635Z,16.43
2023-04-18T20:40:28.680Z,17.10
2023-04-18T20:42:58.290Z,16.97
2023-04-18T20:45:25.709Z,17.80
2023-04-18T20:47:52.855Z,16.13
2023-04-18T20:50:21.056Z,16.60
2023-04-18T20:52:48.119Z,16.40
2023-04-18T20:55:18.756Z,16.47
2023-04-18T20:57:46.252Z,17.00
2023-04-18T21:00:17.311Z,16.33
2023-04-18T21:02:45.293Z,15.77
2023-04-18T21:05:12.457Z,15.97
2023-04-18T21:07:39.606Z,15.50
2023-04-18T21:10:06.859Z,15.97
2023-04-18T21:12:34.062Z,15.83
2023-04-18T21:15:01.395Z,16.77
2023-04-18T21:17:28.719Z,16.70
2023-04-18T21:19:56.478Z,15.23
2023-04-18T21:22:23.561Z,16.57
2023-04-18T21:24:50.327Z,15.30
2023-04-18T21:27:17.375Z,15.87
2023-04-18T21:29:45.216Z,15.33
2023-04-18T21:32:13.050Z,15.37
2023-04-18T21:34:40.226Z,16.03
2023-04-18T21:37:07.127Z,17.20
2023-04-18T21:39:33.922Z,16.43
2023-04-18T21:42:02.366Z,16.07
2023-04-18T21:44:29.518Z,15.60
2023-04-18T21:46:56.866Z,16.00
2023-04-18T21:49:24.736Z,15.37
2023-04-18T21:51:51.852Z,15.20
2023-04-18T21:54:18.668Z,15.00
2023-04-18T21:56:45.593Z,14.60
2023-04-18T21:59:12.506Z,14.53
2023-04-18T22:01:39.824Z,14.77
2023-04-18T22:04:07.654Z,14.43
2023-04-18T22:06:36.435Z,13.80
2023-04-18T22:09:06.486Z,13.87
2023-04-18T22:11:33.727Z,13.83
2023-04-18T22:14:00.645Z,13.97
2023-04-18T22:16:28.966Z,13.93
2023-04-18T22:18:55.930Z,14.03
2023-04-18T22:21:23.529Z,14.70
2023-04-18T22:23:50.307Z,13.60
2023-04-18T22:26:17.628Z,14.10
2023-04-18T22:28:45.024Z,14.30
2023-04-18T22:31:12.148Z,13.40
2023-04-18T22:33:38.978Z,13.93
2023-04-18T22:36:06.340Z,14.50
2023-04-18T22:38:33.119Z,15.43
2023-04-18T22:41:00.125Z,14.53
2023-04-18T22:43:27.085Z,14.07
2023-04-18T22:45:54.013Z,12.60
2023-04-18T22:48:20.832Z,13.13
2023-04-18T22:50:48.006Z,13.40
2023-04-18T22:53:15.286Z,14.10
2023-04-18T22:55:43.245Z,13.00
2023-04-18T22:58:11.242Z,14.67
2023-04-18T23:00:38.168Z,14.53
2023-04-18T23:03:05.285Z,13.33
2023-04-18T23:05:32.392Z,14.50
2023-04-18T23:08:00.605Z,13.67
2023-04-18T23:10:27.588Z,16.27
2023-04-18T23:12:54.699Z,17.47
2023-04-18T23:15:23.109Z,16.77
2023-04-18T23:17:52.013Z,15.70
2023-04-18T23:20:19.401Z,14.50
2023-04-18T23:22:47.043Z,14.87
2023-04-18T23:25:13.913Z,15.20
2023-04-18T23:27:40.749Z,16.10
2023-04-18T23:30:07.925Z,14.47
2023-04-18T23:32:34.905Z,14.70
2023-04-18T23:35:04.482Z,15.80
2023-04-18T23:37:31.644Z,16.03
2023-04-18T23:39:59.635Z,14.40
2023-04-18T23:42:26.415Z,16.27
2023-04-18T23:44:53.503Z,14.80
2023-04-18T23:47:20.546Z,13.27
2023-04-18T23:49:47.383Z,14.63
2023-04-18T23:52:14.240Z,13.87
2023-04-18T23:54:41.334Z,14.10
2023-04-18T23:57:08.229Z,14.27
2023-04-18T23:59:34.973Z,13.13
